RKV weather

Reykjavik Airport
Reykjavik, Capital Region, Iceland

Public forecast

Using degrees Celsius for public forecast. Weather courtesy of forecast.io.

METAR (pilot weather report)

Retrieved 2019/01/21 18:00 UTC (24 minutes ago):

BIRK 211800Z 11003KT 9999 FEW032 BKN120 M03/M04 Q0976

TAF (pilot weather forecast)

Retrieved 2019/01/21 15:00 UTC (3 hours ago):

TAF BIRK 211356Z 2115/2215 06010KT 9999 SHSN FEW020CB BKN050 TX01/2215Z TNM03/2204Z TEMPO 2115/2215 1000 SHSN BKN010CB BECMG 2115/2118 35010KT BECMG 2200/2203 30018KT